createdAt,value
2022-11-20T00:00:42.267Z,101039.03
2022-11-20T00:03:08.559Z,101036.59
2022-11-20T00:05:34.952Z,101033.59
2022-11-20T00:08:01.339Z,101035.78
2022-11-20T00:10:27.675Z,101043.97
2022-11-20T00:12:53.939Z,101035.19
2022-11-20T00:15:20.213Z,101036.84
2022-11-20T00:17:47.818Z,101037.00
2022-11-20T00:20:14.410Z,101032.88
2022-11-20T00:22:40.726Z,101032.09
2022-11-20T00:25:07.371Z,101021.09
2022-11-20T00:27:33.900Z,101018.63
2022-11-20T00:30:00.212Z,101030.00
2022-11-20T00:32:26.514Z,101033.47
2022-11-20T00:34:54.131Z,101029.00
2022-11-20T00:37:20.442Z,101038.53
2022-11-20T00:39:46.714Z,101029.94
2022-11-20T00:42:13.051Z,101024.88
2022-11-20T00:44:39.325Z,101027.69
2022-11-20T00:47:05.619Z,101028.44
2022-11-20T00:49:31.927Z,101022.88
2022-11-20T00:51:59.520Z,101024.28
2022-11-20T00:54:25.792Z,101030.63
2022-11-20T00:56:53.455Z,101026.91
2022-11-20T00:59:20.178Z,101021.75
2022-11-20T01:01:46.688Z,101024.53
2022-11-20T01:04:12.949Z,101024.19
2022-11-20T01:06:39.846Z,101027.88
2022-11-20T01:09:08.711Z,101022.56
2022-11-20T01:11:36.418Z,101021.50
2022-11-20T01:14:03.886Z,101018.03
2022-11-20T01:16:31.253Z,101015.50
2022-11-20T01:18:59.412Z,101017.97
2022-11-20T01:21:26.738Z,101010.28
2022-11-20T01:23:53.567Z,101010.38
2022-11-20T01:26:22.754Z,101017.03
2022-11-20T01:28:49.466Z,101022.75
2022-11-20T01:31:16.740Z,101018.63
2022-11-20T01:33:43.735Z,101015.28
2022-11-20T01:36:10.859Z,101025.44
2022-11-20T01:38:37.493Z,101019.31
2022-11-20T01:41:04.540Z,101015.84
2022-11-20T01:43:32.531Z,101021.00
2022-11-20T01:46:00.786Z,101020.06
2022-11-20T01:48:29.261Z,101011.13
2022-11-20T01:50:55.862Z,101000.69
2022-11-20T01:53:25.176Z,101019.16
2022-11-20T01:55:54.227Z,101017.47
2022-11-20T01:58:23.234Z,101010.31
2022-11-20T02:00:50.841Z,101001.28
2022-11-20T02:03:18.195Z,101003.06
2022-11-20T02:05:45.994Z,101002.50
2022-11-20T02:08:12.751Z,101005.75
2022-11-20T02:10:39.969Z,101006.75
2022-11-20T02:13:06.446Z,101009.28
2022-11-20T02:15:33.493Z,101020.34
2022-11-20T02:18:01.393Z,101017.38
2022-11-20T02:20:29.072Z,101016.97
2022-11-20T02:22:57.922Z,101018.31
2022-11-20T02:25:26.787Z,101010.25
2022-11-20T02:27:53.129Z,101005.97
2022-11-20T02:30:19.653Z,101004.66
2022-11-20T02:32:45.989Z,101008.56
2022-11-20T02:35:27.145Z,101007.44
2022-11-20T02:37:54.690Z,100996.47
2022-11-20T02:40:21.256Z,101003.66
2022-11-20T02:42:49.087Z,100998.44
2022-11-20T02:45:15.392Z,100997.75
2022-11-20T02:47:41.681Z,100998.16
2022-11-20T02:50:08.262Z,100996.13
2022-11-20T02:52:34.555Z,100995.38
2022-11-20T02:55:00.888Z,100998.09
2022-11-20T02:57:27.283Z,100992.97
2022-11-20T02:59:54.905Z,100988.66
2022-11-20T03:02:21.194Z,100989.50
2022-11-20T03:04:47.504Z,100987.53
2022-11-20T03:07:13.799Z,100988.97
2022-11-20T03:09:40.111Z,100988.06
2022-11-20T03:12:06.723Z,100994.22
2022-11-20T03:14:32.986Z,100985.28
2022-11-20T03:17:00.638Z,100979.84
2022-11-20T03:19:26.955Z,100972.78
2022-11-20T03:21:53.259Z,100981.22
2022-11-20T03:24:19.551Z,100989.97
2022-11-20T03:26:45.856Z,100986.44
2022-11-20T03:29:12.168Z,100984.38
2022-11-20T03:31:39.375Z,100977.22
2022-11-20T03:34:07.527Z,100977.06
2022-11-20T03:36:34.359Z,100980.09
2022-11-20T03:39:00.938Z,100970.09
2022-11-20T03:41:27.883Z,100972.88
2022-11-20T03:43:55.290Z,100969.34
2022-11-20T03:46:21.932Z,100971.09
2022-11-20T03:48:51.638Z,100972.69
2022-11-20T03:51:20.249Z,100975.06
2022-11-20T03:53:47.640Z,100973.28
2022-11-20T03:56:15.085Z,100974.78
2022-11-20T03:58:41.811Z,100965.34
2022-11-20T04:01:08.989Z,100973.84
2022-11-20T04:03:35.506Z,100955.56
2022-11-20T04:06:03.073Z,100968.63
2022-11-20T04:08:30.743Z,100958.25
2022-11-20T04:10:57.052Z,100948.66
2022-11-20T04:13:23.330Z,100948.75
2022-11-20T04:15:49.628Z,100945.78
2022-11-20T04:18:15.947Z,100945.78
2022-11-20T04:20:42.216Z,100947.28
2022-11-20T04:23:08.522Z,100939.44
2022-11-20T04:25:36.195Z,100943.81
2022-11-20T04:28:02.494Z,100947.28
2022-11-20T04:30:28.761Z,100936.81
2022-11-20T04:32:55.054Z,100939.34
2022-11-20T04:35:21.363Z,100939.44
2022-11-20T04:37:47.630Z,100950.94
2022-11-20T04:40:14.003Z,100951.03
2022-11-20T04:42:41.650Z,100955.31
2022-11-20T04:45:08.260Z,100949.03
2022-11-20T04:47:34.566Z,100940.41
2022-11-20T04:50:01.231Z,100935.34
2022-11-20T04:52:27.537Z,100942.25
2022-11-20T04:54:53.882Z,100939.63
2022-11-20T04:57:20.289Z,100938.72
2022-11-20T04:59:47.914Z,100941.13
2022-11-20T05:02:14.309Z,100936.56
2022-11-20T05:04:40.610Z,100934.63
2022-11-20T05:07:06.955Z,100924.91
2022-11-20T05:09:33.270Z,100932.75
2022-11-20T05:11:59.607Z,100929.41
2022-11-20T05:14:25.886Z,100927.81
2022-11-20T05:16:53.562Z,100928.47
2022-11-20T05:19:20.156Z,100921.56
2022-11-20T05:21:46.713Z,100917.25
2022-11-20T05:24:13.008Z,100918.94
2022-11-20T05:26:39.335Z,100916.41
2022-11-20T05:29:05.621Z,100912.03
2022-11-20T05:31:31.926Z,100911.44
2022-11-20T05:33:59.568Z,100912.38
2022-11-20T05:36:25.981Z,100905.47
2022-11-20T05:38:55.523Z,100911.31
2022-11-20T05:41:24.752Z,100913.09
2022-11-20T05:43:51.093Z,100915.44
2022-11-20T05:46:19.617Z,100911.16
2022-11-20T05:48:48.660Z,100905.25
2022-11-20T05:51:17.313Z,100910.38
2022-11-20T05:53:48.042Z,100916.38
2022-11-20T05:56:16.505Z,100917.03
2022-11-20T05:58:43.089Z,100918.66
2022-11-20T06:01:10.310Z,100920.31
2022-11-20T06:03:36.998Z,100927.50
2022-11-20T06:06:04.746Z,100924.03
2022-11-20T06:08:32.894Z,100921.50
2022-11-20T06:10:59.199Z,100923.28
2022-11-20T06:13:25.496Z,100936.19
2022-11-20T06:15:52.040Z,100932.13
2022-11-20T06:18:18.433Z,100933.91
2022-11-20T06:20:44.817Z,100936.44
2022-11-20T06:23:11.102Z,100949.31
2022-11-20T06:25:39.888Z,100948.41
2022-11-20T06:28:06.492Z,100947.28
2022-11-20T06:30:32.789Z,100936.66
2022-11-20T06:32:59.069Z,100942.38
2022-11-20T06:35:25.369Z,100941.72
2022-11-20T06:37:51.844Z,100949.47
2022-11-20T06:40:18.162Z,100954.28
2022-11-20T06:42:45.757Z,100946.34
2022-11-20T06:45:12.062Z,100944.66
2022-11-20T06:47:38.330Z,100946.63
2022-11-20T06:50:04.987Z,100945.63
2022-11-20T06:52:31.259Z,100950.66
2022-11-20T06:54:57.530Z,100940.19
2022-11-20T06:57:23.843Z,100943.56
2022-11-20T06:59:51.458Z,100934.88
2022-11-20T07:02:17.733Z,100933.03
2022-11-20T07:04:44.006Z,100925.94
2022-11-20T07:07:10.338Z,100922.28
2022-11-20T07:09:36.655Z,100920.44
2022-11-20T07:12:02.933Z,100929.78
2022-11-20T07:14:29.206Z,100941.94
2022-11-20T07:16:57.149Z,100936.59
2022-11-20T07:19:23.706Z,100934.75
2022-11-20T07:21:50.137Z,100932.94
2022-11-20T07:24:16.413Z,100927.63
2022-11-20T07:26:46.605Z,100925.78
2022-11-20T07:29:12.877Z,100927.28
2022-11-20T07:31:39.203Z,100920.19
2022-11-20T07:34:06.843Z,100918.44
2022-11-20T07:36:33.156Z,100913.06
2022-11-20T07:38:59.432Z,100916.38
2022-11-20T07:41:25.746Z,100911.81
2022-11-20T07:43:52.101Z,100917.13
2022-11-20T07:46:18.363Z,100915.25
2022-11-20T07:48:44.666Z,100915.16
2022-11-20T07:51:12.319Z,100920.94
2022-11-20T07:53:38.630Z,100921.53
2022-11-20T07:56:05.205Z,100923.09
2022-11-20T07:58:31.637Z,100939.63
2022-11-20T08:00:57.961Z,100926.66
2022-11-20T08:03:25.113Z,100930.94
2022-11-20T08:05:52.079Z,100933.47
2022-11-20T08:08:19.822Z,100935.16
2022-11-20T08:10:46.114Z,100935.22
2022-11-20T08:13:12.422Z,100931.50
2022-11-20T08:15:39.376Z,100933.94
2022-11-20T08:20:53.030Z,100928.69
2022-11-20T08:23:20.654Z,100914.50
2022-11-20T08:25:49.891Z,100906.56
2022-11-20T08:28:21.367Z,100901.78
2022-11-20T08:30:48.412Z,100897.84
2022-11-20T08:33:14.709Z,100887.72
2022-11-20T08:35:41.017Z,100892.56
2022-11-20T08:38:07.659Z,100896.69
2022-11-20T08:40:35.314Z,100890.50
2022-11-20T08:43:01.618Z,100897.44
2022-11-20T08:45:32.535Z,100909.28
2022-11-20T08:48:01.169Z,100908.91
2022-11-20T08:50:27.456Z,100912.97
2022-11-20T08:52:53.741Z,100916.25
2022-11-20T08:55:20.035Z,100921.41
2022-11-20T08:57:50.793Z,100915.03
2022-11-20T09:00:17.667Z,100915.66
2022-11-20T09:02:43.943Z,100915.47
2022-11-20T09:05:10.209Z,100909.19
2022-11-20T09:07:36.513Z,100897.47
2022-11-20T09:10:22.982Z,100912.81
2022-11-20T09:12:50.887Z,100903.59
2022-11-20T09:15:17.277Z,100904.66
2022-11-20T09:17:43.746Z,100908.34
2022-11-20T09:20:10.405Z,100906.19
2022-11-20T09:22:40.315Z,100896.31
2022-11-20T09:25:06.932Z,100886.47
2022-11-20T09:27:33.202Z,100887.94
2022-11-20T09:30:00.785Z,100891.28
2022-11-20T09:32:27.096Z,100883.56
2022-11-20T09:34:53.405Z,100880.78
2022-11-20T09:37:19.719Z,100877.97
2022-11-20T09:39:46.047Z,100872.63
2022-11-20T09:42:28.749Z,100865.50
2022-11-20T09:45:00.865Z,100866.94
2022-11-20T09:47:35.183Z,100864.88
2022-11-20T09:50:06.642Z,100865.50
2022-11-20T09:52:39.494Z,100858.25
2022-11-20T09:55:09.182Z,100856.16
2022-11-20T09:57:37.574Z,100851.41
2022-11-20T10:00:05.150Z,100841.56
2022-11-20T10:02:40.019Z,100842.09
2022-11-20T10:05:11.523Z,100845.22
2022-11-20T10:07:42.338Z,100837.97
2022-11-20T10:10:15.245Z,100828.22
2022-11-20T10:12:48.904Z,100819.28
2022-11-20T10:15:23.393Z,100826.81
2022-11-20T10:17:59.777Z,100821.25
2022-11-20T10:20:30.648Z,100814.81
2022-11-20T10:23:14.914Z,100813.78
2022-11-20T10:25:44.899Z,100801.38
2022-11-20T10:28:16.967Z,100789.31
2022-11-20T10:30:44.503Z,100789.84
2022-11-20T10:33:16.544Z,100767.53
2022-11-20T10:35:44.889Z,100766.25
2022-11-20T10:38:15.743Z,100768.63
2022-11-20T10:40:44.034Z,100761.28
2022-11-20T10:43:13.156Z,100769.63
2022-11-20T10:45:46.505Z,100770.38
2022-11-20T10:48:16.406Z,100756.19
2022-11-20T10:50:50.599Z,100752.38
2022-11-20T10:53:20.482Z,100745.47
2022-11-20T10:55:51.531Z,100739.94
2022-11-20T10:58:20.377Z,100741.16
2022-11-20T11:00:46.712Z,100736.53
2022-11-20T11:03:21.367Z,100730.19
2022-11-20T11:05:50.924Z,100718.00
2022-11-20T11:08:18.338Z,100713.47
2022-11-20T11:10:47.558Z,100712.28
2022-11-20T11:13:23.878Z,100703.47
2022-11-20T11:15:50.472Z,100711.09
2022-11-20T11:18:25.511Z,100701.31
2022-11-20T11:20:52.249Z,100694.16
2022-11-20T11:23:27.414Z,100692.16
2022-11-20T11:25:57.797Z,100692.03
2022-11-20T11:28:25.358Z,100695.25
2022-11-20T11:30:52.022Z,100703.84
2022-11-20T11:33:20.015Z,100689.66
2022-11-20T11:35:51.395Z,100693.84
2022-11-20T11:38:22.101Z,100689.41
2022-11-20T11:40:48.408Z,100691.22
2022-11-20T11:43:21.859Z,100690.38
2022-11-20T11:45:52.703Z,100685.22
2022-11-20T11:48:19.043Z,100680.09
2022-11-20T11:50:50.990Z,100679.13
2022-11-20T11:53:18.546Z,100679.13
2022-11-20T11:55:46.625Z,100679.13
2022-11-20T11:58:17.317Z,100671.13
2022-11-20T12:00:50.607Z,100664.09
2022-11-20T12:03:18.769Z,100663.97
2022-11-20T12:05:47.938Z,100662.78
2022-11-20T12:08:18.235Z,100643.31
2022-11-20T12:10:47.087Z,100642.97
2022-11-20T12:13:19.187Z,100633.75
2022-11-20T12:15:47.134Z,100626.34
2022-11-20T12:18:16.871Z,100624.19
2022-11-20T12:20:47.685Z,100614.28
2022-11-20T12:23:18.931Z,100603.63
2022-11-20T12:25:47.012Z,100587.59
2022-11-20T12:28:19.700Z,100584.84
2022-11-20T12:30:51.108Z,100577.78
2022-11-20T12:33:28.203Z,100571.56
2022-11-20T12:36:05.778Z,100573.13
2022-11-20T12:38:59.045Z,100572.06
2022-11-20T12:41:34.282Z,100556.00
2022-11-20T12:44:05.934Z,100548.97
2022-11-20T12:46:37.536Z,100546.94
2022-11-20T12:49:10.010Z,100533.84
2022-11-20T12:51:44.675Z,100534.34
2022-11-20T12:54:37.754Z,100539.31
2022-11-20T12:57:06.891Z,100531.19
2022-11-20T12:59:42.047Z,100515.28
2022-11-20T13:02:15.517Z,100516.13
2022-11-20T13:04:49.722Z,100508.22
2022-11-20T13:07:17.085Z,100507.28
2022-11-20T13:09:46.914Z,100492.31
2022-11-20T13:12:16.342Z,100490.66
2022-11-20T13:14:46.848Z,100490.41
2022-11-20T13:17:16.941Z,100476.28
2022-11-20T13:19:47.275Z,100471.03
2022-11-20T13:22:13.559Z,100465.06
2022-11-20T13:24:39.888Z,100465.75
2022-11-20T13:27:18.857Z,100467.69
2022-11-20T13:29:45.834Z,100465.75
2022-11-20T13:32:15.079Z,100456.06
2022-11-20T13:34:51.878Z,100456.63
2022-11-20T13:37:25.854Z,100451.25
2022-11-20T13:39:52.213Z,100434.25
2022-11-20T13:42:27.467Z,100435.63
2022-11-20T13:44:55.326Z,100424.03
2022-11-20T13:47:22.261Z,100418.63
2022-11-20T13:49:48.907Z,100413.25
2022-11-20T13:52:29.388Z,100407.97
2022-11-20T13:54:59.393Z,100406.06
2022-11-20T13:57:36.525Z,100404.25
2022-11-20T14:00:10.663Z,100401.63
2022-11-20T14:02:37.102Z,100391.78
2022-11-20T14:05:05.129Z,100389.84
2022-11-20T14:07:33.318Z,100389.84
2022-11-20T14:09:59.673Z,100384.59
2022-11-20T14:12:29.026Z,100382.78
2022-11-20T14:14:57.044Z,100368.66
2022-11-20T14:17:24.996Z,100368.66
2022-11-20T14:19:52.083Z,100367.69
2022-11-20T14:22:19.906Z,100354.66
2022-11-20T14:24:46.310Z,100351.19
2022-11-20T14:27:13.887Z,100352.88
2022-11-20T14:29:40.215Z,100352.88
2022-11-20T14:32:09.740Z,100347.47
2022-11-20T14:34:38.758Z,100345.69
2022-11-20T14:37:06.399Z,100345.69
2022-11-20T14:39:34.047Z,100343.75
2022-11-20T14:42:00.399Z,100336.00
2022-11-20T14:44:28.667Z,100336.81
2022-11-20T14:46:56.078Z,100329.63
2022-11-20T14:49:24.164Z,100324.25
2022-11-20T14:51:59.340Z,100320.78
2022-11-20T14:54:25.867Z,100320.63
2022-11-20T14:56:55.337Z,100303.97
2022-11-20T14:59:23.282Z,100303.97
2022-11-20T15:01:55.657Z,100305.66
2022-11-20T15:04:22.312Z,100296.78
2022-11-20T15:06:52.470Z,100288.75
2022-11-20T15:09:18.789Z,100272.84
2022-11-20T15:11:53.028Z,100266.59
2022-11-20T15:14:19.410Z,100256.91
2022-11-20T15:16:45.733Z,100254.16
2022-11-20T15:19:17.181Z,100249.84
2022-11-20T15:21:43.486Z,100246.25
2022-11-20T15:24:11.257Z,100245.94
2022-11-20T15:26:38.737Z,100231.00
2022-11-20T15:29:05.006Z,100231.00
2022-11-20T15:31:31.318Z,100233.50
2022-11-20T15:33:59.335Z,100228.22
2022-11-20T15:36:25.635Z,100229.63
2022-11-20T15:38:52.071Z,100221.59
2022-11-20T15:41:19.693Z,100216.03
2022-11-20T15:43:45.984Z,100218.53
2022-11-20T15:46:13.728Z,100215.75
2022-11-20T15:48:46.374Z,100211.06
2022-11-20T15:51:22.241Z,100192.63
2022-11-20T15:53:48.510Z,100188.75
2022-11-20T15:56:15.196Z,100180.03
2022-11-20T15:58:42.942Z,100174.44
2022-11-20T16:01:11.093Z,100174.31
2022-11-20T16:03:37.400Z,100161.00
2022-11-20T16:06:03.743Z,100158.25
2022-11-20T16:08:30.038Z,100152.84
2022-11-20T16:10:56.364Z,100156.31
2022-11-20T16:13:22.695Z,100145.78
2022-11-20T16:15:53.551Z,100141.34
2022-11-20T16:18:20.718Z,100140.50
2022-11-20T16:20:47.903Z,100136.91
2022-11-20T16:23:14.529Z,100134.25
2022-11-20T16:25:40.786Z,100120.94
2022-11-20T16:28:07.089Z,100120.66
2022-11-20T16:30:33.795Z,100120.50
2022-11-20T16:33:01.819Z,100120.38
2022-11-20T16:35:28.191Z,100118.44
2022-11-20T16:37:54.739Z,100119.97
2022-11-20T16:40:21.134Z,100114.53
2022-11-20T16:42:47.458Z,100116.06
2022-11-20T16:45:13.870Z,100106.22
2022-11-20T16:47:40.265Z,100098.03
2022-11-20T16:50:08.771Z,100107.28
2022-11-20T16:52:35.173Z,100093.97
2022-11-20T16:55:01.480Z,100092.88
2022-11-20T16:57:28.243Z,100096.19
2022-11-20T16:59:57.747Z,100088.97
2022-11-20T17:02:26.608Z,100078.44
2022-11-20T17:04:53.174Z,100079.09
2022-11-20T17:07:20.855Z,100069.38
2022-11-20T17:09:48.121Z,100060.41
2022-11-20T17:12:14.465Z,100068.03
2022-11-20T17:14:40.754Z,100063.72
2022-11-20T17:17:07.052Z,100058.03
2022-11-20T17:19:33.387Z,100062.00
2022-11-20T17:22:00.543Z,100058.53
2022-11-20T17:24:31.864Z,100053.69
2022-11-20T17:26:58.615Z,100045.63
2022-11-20T17:29:24.945Z,100048.09
2022-11-20T17:31:51.234Z,100040.03
2022-11-20T17:34:17.613Z,100040.59
2022-11-20T17:36:45.473Z,100034.19
2022-11-20T17:39:12.999Z,100038.34
2022-11-20T17:41:40.904Z,100034.44
2022-11-20T17:44:09.326Z,100027.88
2022-11-20T17:46:35.628Z,100023.38
2022-11-20T17:49:04.426Z,100015.69
2022-11-20T17:51:32.048Z,100017.88
2022-11-20T17:53:59.190Z,100017.53
2022-11-20T17:56:25.669Z,100012.47
2022-11-20T17:58:53.330Z,100012.84
2022-11-20T18:01:20.134Z,100012.91
2022-11-20T18:03:46.917Z,100000.31
2022-11-20T18:06:13.908Z,100002.84
2022-11-20T18:08:40.274Z,99995.13
2022-11-20T18:11:10.073Z,99987.59
2022-11-20T18:13:36.684Z,99989.81
2022-11-20T18:16:07.570Z,99983.22
2022-11-20T18:18:33.853Z,99979.66
2022-11-20T18:21:00.127Z,99984.31
2022-11-20T18:23:26.442Z,99996.25
2022-11-20T18:25:52.755Z,99997.06
2022-11-20T18:28:19.063Z,100019.91
2022-11-20T18:30:45.388Z,100010.94
2022-11-20T18:33:13.008Z,100017.38
2022-11-20T18:35:39.637Z,100029.91
2022-11-20T18:38:05.975Z,100029.91
2022-11-20T18:40:34.355Z,100024.09
2022-11-20T18:43:00.635Z,100028.94
2022-11-20T18:45:27.046Z,100025.31
2022-11-20T18:47:53.360Z,100027.81
2022-11-20T18:50:21.747Z,100027.63
2022-11-20T18:52:48.062Z,100027.81
2022-11-20T18:55:14.379Z,100028.09
2022-11-20T18:57:40.779Z,100037.84
2022-11-20T19:00:09.625Z,100029.75
2022-11-20T19:02:40.872Z,100030.75
2022-11-20T19:05:08.592Z,100038.28
2022-11-20T19:07:36.285Z,100028.72
2022-11-20T19:10:04.175Z,100029.91
2022-11-20T19:12:31.007Z,100037.63
2022-11-20T19:15:00.233Z,100037.63
2022-11-20T19:17:26.562Z,100041.28
2022-11-20T19:19:55.476Z,100036.97
2022-11-20T19:22:21.843Z,100041.28
2022-11-20T19:24:49.786Z,100047.16
2022-11-20T19:27:16.184Z,100045.50
2022-11-20T19:29:42.500Z,100058.09
2022-11-20T19:32:09.323Z,100055.75
2022-11-20T19:34:35.678Z,100059.53
2022-11-20T19:37:02.047Z,100062.84
2022-11-20T19:39:28.454Z,100069.81
2022-11-20T19:41:56.158Z,100068.59
2022-11-20T19:44:22.738Z,100065.78
2022-11-20T19:46:49.356Z,100066.34
2022-11-20T19:49:15.745Z,100071.47
2022-11-20T19:51:45.342Z,100072.44
2022-11-20T19:54:11.968Z,100064.81
2022-11-20T19:56:38.297Z,100068.78
2022-11-20T19:59:07.115Z,100075.19
2022-11-20T20:01:33.949Z,100076.00
2022-11-20T20:04:00.797Z,100078.66
2022-11-20T20:06:29.449Z,100084.91
2022-11-20T20:08:56.241Z,100081.88
2022-11-20T20:11:24.000Z,100090.19
2022-11-20T20:13:50.713Z,100092.31
2022-11-20T20:16:19.461Z,100100.09
2022-11-20T20:18:46.151Z,100096.16
2022-11-20T20:21:13.256Z,100091.53
2022-11-20T20:23:40.193Z,100096.31
2022-11-20T20:26:07.381Z,100088.84
2022-11-20T20:28:34.376Z,100098.56
2022-11-20T20:31:06.047Z,100100.03
2022-11-20T20:33:33.815Z,100111.72
2022-11-20T20:36:00.166Z,100102.44
2022-11-20T20:38:26.826Z,100111.31
2022-11-20T20:40:54.497Z,100117.75
2022-11-20T20:43:20.841Z,100113.59
2022-11-20T20:45:47.756Z,100116.53
2022-11-20T20:48:14.550Z,100112.22
2022-11-20T20:50:42.495Z,100116.41
2022-11-20T20:53:08.975Z,100119.66
2022-11-20T20:55:35.422Z,100118.75
2022-11-20T20:58:01.728Z,100129.75
2022-11-20T21:00:28.086Z,100127.09
2022-11-20T21:02:54.423Z,100137.50
2022-11-20T21:05:20.824Z,100129.31
2022-11-20T21:07:48.534Z,100138.78
2022-11-20T21:10:16.948Z,100130.56
2022-11-20T21:12:46.218Z,100140.59
2022-11-20T21:15:12.546Z,100140.81
2022-11-20T21:17:38.845Z,100140.66
2022-11-20T21:20:05.643Z,100145.13
2022-11-20T21:22:36.354Z,100153.56
2022-11-20T21:25:04.434Z,100151.22
2022-11-20T21:27:30.726Z,100159.28
2022-11-20T21:29:57.009Z,100181.25
2022-11-20T21:32:23.290Z,100168.16
2022-11-20T21:34:49.608Z,100169.19
2022-11-20T21:37:16.245Z,100170.84
2022-11-20T21:39:42.499Z,100169.19
2022-11-20T21:42:10.119Z,100158.63
2022-11-20T21:44:36.450Z,100161.69
2022-11-20T21:47:02.739Z,100151.56
2022-11-20T21:49:29.013Z,100158.97
2022-11-20T21:51:55.296Z,100158.97
2022-11-20T21:54:21.838Z,100163.28
2022-11-20T21:56:48.384Z,100153.00
2022-11-20T21:59:16.018Z,100165.53
2022-11-20T22:01:42.424Z,100153.31
2022-11-20T22:04:12.851Z,100157.31
2022-11-20T22:06:39.178Z,100174.13
2022-11-20T22:09:05.489Z,100172.47
2022-11-20T22:11:31.782Z,100183.03
2022-11-20T22:13:58.111Z,100178.72
2022-11-20T22:16:25.994Z,100176.91
2022-11-20T22:18:53.070Z,100177.75
2022-11-20T22:21:20.586Z,100176.47
2022-11-20T22:23:47.047Z,100179.69
2022-11-20T22:26:14.521Z,100187.75
2022-11-20T22:28:41.083Z,100176.81
2022-11-20T22:31:08.059Z,100185.84
2022-11-20T22:33:36.752Z,100181.56
2022-11-20T22:36:04.029Z,100191.28
2022-11-20T22:38:32.175Z,100188.34
2022-11-20T22:41:01.738Z,100196.28
2022-11-20T22:43:28.020Z,100199.59
2022-11-20T22:45:54.278Z,100199.75
2022-11-20T22:48:20.542Z,100209.47
2022-11-20T22:50:48.170Z,100213.63
2022-11-20T22:53:14.438Z,100211.97
2022-11-20T22:55:40.719Z,100207.38
2022-11-20T22:58:07.011Z,100223.50
2022-11-20T23:03:36.156Z,100242.84
2022-11-20T23:06:03.945Z,100239.50
2022-11-20T23:08:30.823Z,100232.47
2022-11-20T23:11:00.241Z,100216.50
2022-11-20T23:13:26.834Z,100218.31
2022-11-20T23:15:53.142Z,100223.22
2022-11-20T23:18:19.454Z,100216.13
2022-11-20T23:20:45.755Z,100216.41
2022-11-20T23:23:13.425Z,100223.22
2022-11-20T23:25:39.723Z,100232.25
2022-11-20T23:28:06.046Z,100237.78
2022-11-20T23:30:32.334Z,100233.22
2022-11-20T23:32:58.616Z,100235.72
2022-11-20T23:35:24.902Z,100254.19
2022-11-20T23:37:51.194Z,100258.59
2022-11-20T23:40:18.858Z,100267.72
2022-11-20T23:42:45.161Z,100275.94
2022-11-20T23:45:11.472Z,100273.75
2022-11-20T23:47:37.791Z,100284.47
2022-11-20T23:50:04.378Z,100283.88
2022-11-20T23:52:30.666Z,100277.38
2022-11-20T23:54:56.936Z,100273.53
2022-11-20T23:57:24.557Z,100276.31
2022-11-20T23:59:50.821Z,100276.03
